createdAt,value
2023-10-11T00:00:31.218Z,36.56
2023-10-11T00:02:57.874Z,36.09
2023-10-11T00:05:25.216Z,36.39
2023-10-11T00:07:59.396Z,37.19
2023-10-11T00:10:25.762Z,37.06
2023-10-11T00:12:53.125Z,36.88
2023-10-11T00:15:19.511Z,37.45
2023-10-11T00:17:48.958Z,36.62
2023-10-11T00:20:29.090Z,36.56
2023-10-11T00:22:55.889Z,36.21
2023-10-11T00:25:25.737Z,36.02
2023-10-11T00:27:52.657Z,36.04
2023-10-11T00:30:19.558Z,35.68
2023-10-11T00:32:49.013Z,35.80
2023-10-11T00:35:25.598Z,36.09
2023-10-11T00:37:55.681Z,36.20
2023-10-11T00:40:33.092Z,36.30
2023-10-11T00:42:59.754Z,37.05
2023-10-11T00:45:32.291Z,37.79
2023-10-11T00:48:00.410Z,37.15
2023-10-11T00:50:27.443Z,37.57
2023-10-11T00:52:56.370Z,37.45
2023-10-11T00:55:25.779Z,37.21
2023-10-11T00:57:54.673Z,36.96
2023-10-11T01:00:24.700Z,36.87
2023-10-11T01:02:53.302Z,36.62
2023-10-11T01:05:20.393Z,36.14
2023-10-11T01:07:46.814Z,36.03
2023-10-11T01:10:13.215Z,35.61
2023-10-11T01:12:42.542Z,35.33
2023-10-11T01:15:15.496Z,35.92
2023-10-11T01:17:42.127Z,35.90
2023-10-11T01:20:14.202Z,35.55
2023-10-11T01:22:46.563Z,35.43
2023-10-11T01:25:21.954Z,35.63
2023-10-11T01:27:48.514Z,36.03
2023-10-11T01:30:15.254Z,36.37
2023-10-11T01:32:45.051Z,35.82
2023-10-11T01:35:14.037Z,35.75
2023-10-11T01:37:44.757Z,35.60
2023-10-11T01:40:25.357Z,36.07
2023-10-11T01:42:52.007Z,36.17
2023-10-11T01:45:20.816Z,36.07
2023-10-11T01:47:47.652Z,36.16
2023-10-11T01:50:17.345Z,35.87
2023-10-11T01:52:43.999Z,35.93
2023-10-11T01:55:16.524Z,36.31
2023-10-11T01:57:46.514Z,36.60
2023-10-11T02:00:28.677Z,36.38
2023-10-11T02:02:58.495Z,36.38
2023-10-11T02:05:25.097Z,35.81
2023-10-11T02:07:51.874Z,36.54
2023-10-11T02:10:26.667Z,36.42
2023-10-11T02:12:56.707Z,36.42
2023-10-11T02:15:28.605Z,36.57
2023-10-11T02:17:55.682Z,36.64
2023-10-11T02:20:22.898Z,36.91
2023-10-11T02:22:52.088Z,37.05
2023-10-11T02:25:19.295Z,37.13
2023-10-11T02:27:46.541Z,36.67
2023-10-11T02:30:20.892Z,36.86
2023-10-11T02:32:47.787Z,36.74
2023-10-11T02:35:14.558Z,36.79
2023-10-11T02:37:41.460Z,37.19
2023-10-11T02:40:09.072Z,36.84
2023-10-11T02:42:38.357Z,36.72
2023-10-11T02:45:07.786Z,36.88
2023-10-11T02:47:37.264Z,37.08
2023-10-11T02:50:06.660Z,37.08
2023-10-11T02:52:41.009Z,37.01
2023-10-11T02:55:23.215Z,37.05
2023-10-11T02:57:58.744Z,36.83
2023-10-11T03:00:25.172Z,36.88
2023-10-11T03:02:57.890Z,36.58
2023-10-11T03:05:30.615Z,36.81
2023-10-11T03:07:57.300Z,37.55
2023-10-11T03:10:23.713Z,37.41
2023-10-11T03:12:53.222Z,37.76
2023-10-11T03:15:22.590Z,37.03
2023-10-11T03:17:54.247Z,38.08
2023-10-11T03:20:30.635Z,37.65
2023-10-11T03:23:01.604Z,38.02
2023-10-11T03:25:28.814Z,38.04
2023-10-11T03:27:55.169Z,37.63
2023-10-11T03:30:26.066Z,37.95
2023-10-11T03:32:53.051Z,37.53
2023-10-11T03:35:20.248Z,38.25
2023-10-11T03:37:58.530Z,37.46
2023-10-11T03:40:55.227Z,37.51
2023-10-11T03:43:22.029Z,37.33
2023-10-11T03:45:51.815Z,37.35
2023-10-11T03:48:22.167Z,37.46
2023-10-11T03:50:49.245Z,37.56
2023-10-11T03:53:16.385Z,37.55
2023-10-11T03:55:49.090Z,37.93
2023-10-11T03:58:34.623Z,37.59
2023-10-11T04:01:07.542Z,38.20
2023-10-11T04:03:35.421Z,38.35
2023-10-11T04:06:02.333Z,38.36
2023-10-11T04:08:28.828Z,38.21
2023-10-11T04:10:55.267Z,37.81
2023-10-11T04:13:26.427Z,37.94
2023-10-11T04:15:55.725Z,36.64
2023-10-11T04:18:34.701Z,36.66
2023-10-11T04:21:10.267Z,36.34
2023-10-11T04:23:40.897Z,35.96
2023-10-11T04:26:25.662Z,36.34
2023-10-11T04:28:53.318Z,36.50
2023-10-11T04:31:29.780Z,37.03
2023-10-11T04:33:56.244Z,38.15
2023-10-11T04:36:23.052Z,38.88
2023-10-11T04:38:50.352Z,39.59
2023-10-11T04:41:18.969Z,39.42
2023-10-11T04:44:05.825Z,39.65
2023-10-11T04:46:32.368Z,39.79
2023-10-11T04:49:18.909Z,39.67
2023-10-11T04:51:47.780Z,39.30
2023-10-11T04:54:19.316Z,39.31
2023-10-11T04:56:46.191Z,38.01
2023-10-11T04:59:18.750Z,37.43
2023-10-11T05:01:48.092Z,37.49
2023-10-11T05:04:16.257Z,37.38
2023-10-11T05:06:43.681Z,37.30
2023-10-11T05:09:23.094Z,37.95
2023-10-11T05:11:54.818Z,38.08
2023-10-11T05:14:30.799Z,38.12
2023-10-11T05:17:00.577Z,37.95
2023-10-11T05:19:27.555Z,37.93
2023-10-11T05:22:03.919Z,37.88
2023-10-11T05:24:53.116Z,37.86
2023-10-11T05:27:28.468Z,38.50
2023-10-11T05:30:07.155Z,38.87
2023-10-11T05:32:34.028Z,38.88
2023-10-11T05:35:16.062Z,39.44
2023-10-11T05:38:01.105Z,39.22
2023-10-11T05:40:45.973Z,39.70
2023-10-11T05:43:31.000Z,40.24
2023-10-11T05:46:15.676Z,40.20
2023-10-11T05:49:00.476Z,39.99
2023-10-11T05:51:29.601Z,39.80
2023-10-11T05:53:56.153Z,39.74
2023-10-11T05:56:22.546Z,39.20
2023-10-11T05:58:53.143Z,38.46
2023-10-11T06:01:22.276Z,38.55
2023-10-11T06:03:52.449Z,38.16
2023-10-11T06:06:25.406Z,37.83
2023-10-11T06:08:52.054Z,38.33
2023-10-11T06:11:19.798Z,38.91
2023-10-11T06:13:49.764Z,39.56
2023-10-11T06:16:16.861Z,39.95
2023-10-11T06:19:12.350Z,39.31
2023-10-11T06:21:57.051Z,38.87
2023-10-11T06:24:26.685Z,38.69
2023-10-11T06:26:53.677Z,38.52
2023-10-11T06:29:24.320Z,38.16
2023-10-11T06:31:54.015Z,38.39
2023-10-11T06:34:33.307Z,37.37
2023-10-11T06:37:01.310Z,38.32
2023-10-11T06:39:43.240Z,37.88
2023-10-11T06:42:22.866Z,37.39
2023-10-11T06:44:53.762Z,38.51
2023-10-11T06:47:20.862Z,38.17
2023-10-11T06:49:56.674Z,38.96
2023-10-11T06:52:26.785Z,38.71
2023-10-11T06:55:12.156Z,38.83
2023-10-11T06:57:41.155Z,39.16
2023-10-11T07:00:22.518Z,39.05
2023-10-11T07:02:49.780Z,38.77
2023-10-11T07:05:19.025Z,37.91
2023-10-11T07:07:48.971Z,37.67
2023-10-11T07:10:33.686Z,37.14
2023-10-11T07:13:06.929Z,38.02
2023-10-11T07:15:38.701Z,37.30
2023-10-11T07:18:09.478Z,36.57
2023-10-11T07:20:48.951Z,35.65
2023-10-11T07:23:21.368Z,35.08
2023-10-11T07:26:20.466Z,35.60
2023-10-11T07:28:51.426Z,33.89
2023-10-11T07:31:18.326Z,32.89
2023-10-11T07:33:51.099Z,32.72
2023-10-11T07:36:20.047Z,35.40
2023-10-11T07:38:55.807Z,33.43
2023-10-11T07:41:28.720Z,32.62
2023-10-11T07:43:56.940Z,32.40
2023-10-11T07:46:23.473Z,33.16
2023-10-11T07:48:49.986Z,33.73
2023-10-11T07:51:16.448Z,33.94
2023-10-11T07:53:43.446Z,33.84
2023-10-11T07:56:16.864Z,35.01
2023-10-11T07:58:46.709Z,34.00
2023-10-11T08:01:16.641Z,35.59
2023-10-11T08:03:45.482Z,34.50
2023-10-11T08:06:14.934Z,34.85
2023-10-11T08:08:41.684Z,34.34
2023-10-11T08:11:20.052Z,34.00
2023-10-11T08:13:48.643Z,33.76
2023-10-11T08:16:19.086Z,33.88
2023-10-11T08:18:50.685Z,33.30
2023-10-11T08:21:19.909Z,33.55
2023-10-11T08:23:51.528Z,33.76
2023-10-11T08:26:19.195Z,33.27
2023-10-11T08:28:52.880Z,32.92
2023-10-11T08:31:30.620Z,33.06
2023-10-11T08:33:57.028Z,33.34
2023-10-11T08:36:23.391Z,33.85
2023-10-11T08:38:49.759Z,34.15
2023-10-11T08:41:16.936Z,33.56
2023-10-11T08:43:43.969Z,34.46
2023-10-11T08:46:13.097Z,34.51
2023-10-11T08:48:40.003Z,33.51
2023-10-11T08:51:13.106Z,33.42
2023-10-11T08:53:39.705Z,32.95
2023-10-11T08:56:06.761Z,33.60
2023-10-11T08:58:33.129Z,34.44
2023-10-11T09:01:00.693Z,34.09
2023-10-11T09:03:30.268Z,34.48
2023-10-11T09:05:59.738Z,34.01
2023-10-11T09:08:35.071Z,33.80
2023-10-11T09:11:07.410Z,35.58
2023-10-11T09:13:37.832Z,34.08
2023-10-11T09:16:13.520Z,34.10
2023-10-11T09:18:40.325Z,33.85
2023-10-11T09:21:19.036Z,34.53
2023-10-11T09:23:51.646Z,34.71
2023-10-11T09:26:41.749Z,33.08
2023-10-11T09:29:09.724Z,33.50
2023-10-11T09:31:37.153Z,33.02
2023-10-11T09:34:08.518Z,33.13
2023-10-11T09:36:35.193Z,34.13
2023-10-11T09:39:03.744Z,33.09
2023-10-11T09:41:39.924Z,32.65
2023-10-11T09:44:09.278Z,33.88
2023-10-11T09:46:35.637Z,33.23
2023-10-11T09:49:03.198Z,32.59
2023-10-11T09:51:29.974Z,32.40
2023-10-11T09:54:03.034Z,32.65
2023-10-11T09:56:49.950Z,33.54
2023-10-11T09:59:31.746Z,33.02
2023-10-11T10:02:04.923Z,32.25
2023-10-11T10:04:52.786Z,32.77
2023-10-11T10:07:23.115Z,31.79
2023-10-11T10:09:55.481Z,32.65
2023-10-11T10:12:24.057Z,31.71
2023-10-11T10:14:54.430Z,31.78
2023-10-11T10:17:21.066Z,32.19
2023-10-11T10:19:47.781Z,32.54
2023-10-11T10:22:24.674Z,31.72
2023-10-11T10:24:51.989Z,31.49
2023-10-11T10:27:24.586Z,32.17
2023-10-11T10:30:01.016Z,31.54
2023-10-11T10:32:27.837Z,30.53
2023-10-11T10:35:13.058Z,30.40
2023-10-11T10:37:48.602Z,30.63
2023-10-11T10:40:26.166Z,32.72
2023-10-11T10:43:09.931Z,30.45
2023-10-11T10:45:36.842Z,30.53
2023-10-11T10:48:40.744Z,31.71
2023-10-11T10:51:07.485Z,31.65
2023-10-11T10:53:40.323Z,30.91
2023-10-11T10:56:07.114Z,30.15
2023-10-11T10:58:33.461Z,31.12
2023-10-11T11:01:00.618Z,30.18
2023-10-11T11:03:33.242Z,30.67
2023-10-11T11:06:00.929Z,30.80
2023-10-11T11:08:32.518Z,30.93
2023-10-11T11:11:20.290Z,30.62
2023-10-11T11:13:48.372Z,30.57
2023-10-11T11:16:18.419Z,30.98
2023-10-11T11:18:45.173Z,30.57
2023-10-11T11:21:26.272Z,30.40
2023-10-11T11:23:53.200Z,31.40
2023-10-11T11:26:31.968Z,31.56
2023-10-11T11:29:10.809Z,29.43
2023-10-11T11:31:53.947Z,28.77
2023-10-11T11:34:35.213Z,29.13
2023-10-11T11:39:37.149Z,29.63
2023-10-11T11:42:19.054Z,31.54
2023-10-11T11:44:46.894Z,29.73
2023-10-11T11:47:13.447Z,30.08
2023-10-11T11:49:39.869Z,29.50
2023-10-11T11:52:08.380Z,29.17
2023-10-11T11:54:35.171Z,28.73
2023-10-11T11:57:01.952Z,29.56
2023-10-11T11:59:30.788Z,28.95
2023-10-11T12:02:00.696Z,29.88
2023-10-11T12:04:30.928Z,29.33
2023-10-11T12:07:01.033Z,29.34
2023-10-11T12:09:51.755Z,29.04
2023-10-11T12:12:26.991Z,28.83
2023-10-11T12:14:53.714Z,29.24
2023-10-11T12:17:20.096Z,28.90
2023-10-11T12:19:46.827Z,28.06
2023-10-11T12:22:15.079Z,28.46
2023-10-11T12:24:45.583Z,28.63
2023-10-11T12:27:13.079Z,29.22
2023-10-11T12:29:43.401Z,28.44
2023-10-11T12:32:15.278Z,28.09
2023-10-11T12:34:45.107Z,28.29
2023-10-11T12:37:15.611Z,29.86
2023-10-11T12:39:42.093Z,29.98
2023-10-11T12:42:12.454Z,31.51
2023-10-11T12:44:42.169Z,31.01
2023-10-11T12:47:11.585Z,28.99
2023-10-11T12:49:39.194Z,29.38
2023-10-11T12:52:07.331Z,29.89
2023-10-11T12:54:33.939Z,29.32
2023-10-11T12:57:00.954Z,29.33
2023-10-11T12:59:27.434Z,29.73
2023-10-11T13:01:53.989Z,29.57
2023-10-11T13:04:25.271Z,29.91
2023-10-11T13:06:51.951Z,29.45
2023-10-11T13:09:22.481Z,29.87
2023-10-11T13:11:49.041Z,30.02
2023-10-11T13:14:21.847Z,29.53
2023-10-11T13:16:49.207Z,29.61
2023-10-11T13:19:19.310Z,30.03
2023-10-11T13:21:46.309Z,29.81
2023-10-11T13:24:13.340Z,29.25
2023-10-11T13:26:44.847Z,29.40
2023-10-11T13:29:12.837Z,29.33
2023-10-11T13:31:41.717Z,29.45
2023-10-11T13:34:08.823Z,29.44
2023-10-11T13:36:35.304Z,29.51
2023-10-11T13:39:02.144Z,29.63
2023-10-11T13:41:29.581Z,31.16
2023-10-11T13:43:56.645Z,30.90
2023-10-11T13:46:23.684Z,29.79
2023-10-11T13:48:53.297Z,30.08
2023-10-11T13:51:20.012Z,29.94
2023-10-11T13:53:46.703Z,30.27
2023-10-11T13:56:15.459Z,30.17
2023-10-11T13:58:47.249Z,30.28
2023-10-11T14:01:37.204Z,31.11
2023-10-11T14:04:17.038Z,32.00
2023-10-11T14:06:44.171Z,31.63
2023-10-11T14:09:28.529Z,32.27
2023-10-11T14:11:54.937Z,32.84
2023-10-11T14:14:23.165Z,32.50
2023-10-11T14:16:49.598Z,31.10
2023-10-11T14:19:17.636Z,32.23
2023-10-11T14:21:48.435Z,31.79
2023-10-11T14:24:16.534Z,32.54
2023-10-11T14:26:43.354Z,31.84
2023-10-11T14:29:09.707Z,31.18
2023-10-11T14:31:36.253Z,30.96
2023-10-11T14:34:06.208Z,31.37
2023-10-11T14:36:32.712Z,32.38
2023-10-11T14:38:59.598Z,32.58
2023-10-11T14:41:26.021Z,32.32
2023-10-11T14:43:53.079Z,32.28
2023-10-11T14:46:20.520Z,32.14
2023-10-11T14:48:49.798Z,30.96
2023-10-11T14:51:17.746Z,30.62
2023-10-11T14:53:45.633Z,31.00
2023-10-11T14:56:12.204Z,31.00
2023-10-11T14:58:38.626Z,30.25
2023-10-11T15:01:05.941Z,29.92
2023-10-11T15:03:32.373Z,29.57
2023-10-11T15:05:58.838Z,29.70
2023-10-11T15:08:25.184Z,29.46
2023-10-11T15:10:51.555Z,28.78
2023-10-11T15:13:18.075Z,30.58
2023-10-11T15:15:45.273Z,29.87
2023-10-11T15:18:13.217Z,30.12
2023-10-11T15:20:39.768Z,29.83
2023-10-11T15:23:06.243Z,29.88
2023-10-11T15:25:32.994Z,29.73
2023-10-11T15:27:59.672Z,28.99
2023-10-11T15:30:27.181Z,29.78
2023-10-11T15:32:55.924Z,29.38
2023-10-11T15:35:22.475Z,29.18
2023-10-11T15:37:48.829Z,29.48
2023-10-11T15:40:17.865Z,29.57
2023-10-11T15:42:47.757Z,29.81
2023-10-11T15:45:16.312Z,29.65
2023-10-11T15:47:43.507Z,29.95
2023-10-11T15:50:13.586Z,29.01
2023-10-11T15:52:42.952Z,29.02
2023-10-11T15:55:09.906Z,29.74
2023-10-11T15:57:37.699Z,29.65
2023-10-11T16:00:13.515Z,29.15
2023-10-11T16:02:43.287Z,28.46
2023-10-11T16:05:10.340Z,28.90
2023-10-11T16:07:39.812Z,28.73
2023-10-11T16:10:10.834Z,29.05
2023-10-11T16:12:38.516Z,29.07
2023-10-11T16:15:05.284Z,28.68
2023-10-11T16:17:31.769Z,28.50
2023-10-11T16:19:58.236Z,28.67
2023-10-11T16:22:24.842Z,28.05
2023-10-11T16:24:51.234Z,28.69
2023-10-11T16:27:17.657Z,28.45
2023-10-11T16:29:44.000Z,28.15
2023-10-11T16:32:10.375Z,28.26
2023-10-11T16:34:36.742Z,27.94
2023-10-11T16:37:06.218Z,27.59
2023-10-11T16:39:36.332Z,27.63
2023-10-11T16:42:03.653Z,27.60
2023-10-11T16:44:30.107Z,27.06
2023-10-11T16:46:56.483Z,26.91
2023-10-11T16:49:23.734Z,26.45
2023-10-11T16:51:50.112Z,26.47
2023-10-11T16:54:17.769Z,26.17
2023-10-11T16:56:45.010Z,26.50
2023-10-11T16:59:11.470Z,26.30
2023-10-11T17:01:37.903Z,26.88
2023-10-11T17:04:08.692Z,27.08
2023-10-11T17:06:35.558Z,26.95
2023-10-11T17:09:01.920Z,26.52
2023-10-11T17:11:28.374Z,26.99
2023-10-11T17:13:54.737Z,26.68
2023-10-11T17:16:21.158Z,26.84
2023-10-11T17:18:48.111Z,26.91
2023-10-11T17:21:14.668Z,27.03
2023-10-11T17:23:41.808Z,27.15
2023-10-11T17:26:15.241Z,26.94
2023-10-11T17:28:42.738Z,26.77
2023-10-11T17:31:10.530Z,26.88
2023-10-11T17:33:36.982Z,27.42
2023-10-11T17:36:09.455Z,27.62
2023-10-11T17:38:37.002Z,26.88
2023-10-11T17:41:06.607Z,26.45
2023-10-11T17:43:33.278Z,27.21
2023-10-11T17:45:59.722Z,26.47
2023-10-11T17:48:26.139Z,26.11
2023-10-11T17:50:52.640Z,25.89
2023-10-11T17:53:19.092Z,25.42
2023-10-11T17:55:45.479Z,25.38
2023-10-11T17:58:11.801Z,25.44
2023-10-11T18:00:39.189Z,25.47
2023-10-11T18:03:09.237Z,26.05
2023-10-11T18:05:38.572Z,26.50
2023-10-11T18:08:06.614Z,27.31
2023-10-11T18:10:33.351Z,27.40
2023-10-11T18:12:59.707Z,28.04
2023-10-11T18:15:31.251Z,27.50
2023-10-11T18:18:02.277Z,27.37
2023-10-11T18:20:28.802Z,27.73
2023-10-11T18:22:55.172Z,27.90
2023-10-11T18:25:21.583Z,27.54
2023-10-11T18:27:50.652Z,27.67
2023-10-11T18:30:20.698Z,27.64
2023-10-11T18:32:51.200Z,26.91
2023-10-11T18:35:18.004Z,26.65
2023-10-11T18:37:44.355Z,27.79
2023-10-11T18:40:31.211Z,27.35
2023-10-11T18:42:59.968Z,27.37
2023-10-11T18:45:26.330Z,27.61
2023-10-11T18:47:53.380Z,28.08
2023-10-11T18:50:20.108Z,27.84
2023-10-11T18:52:46.863Z,28.76
2023-10-11T18:55:14.308Z,29.34
2023-10-11T18:57:40.852Z,29.39
2023-10-11T19:00:13.837Z,29.76
2023-10-11T19:02:40.657Z,29.03
2023-10-11T19:05:07.450Z,29.42
2023-10-11T19:07:37.032Z,28.69
2023-10-11T19:10:05.890Z,29.48
2023-10-11T19:12:37.930Z,27.80
2023-10-11T19:15:07.609Z,27.94
2023-10-11T19:17:34.026Z,26.55
2023-10-11T19:20:00.901Z,27.27
2023-10-11T19:22:27.439Z,27.63
2023-10-11T19:24:53.814Z,27.89
2023-10-11T19:27:22.027Z,28.33
2023-10-11T19:29:48.497Z,28.14
2023-10-11T19:32:19.399Z,28.67
2023-10-11T19:34:49.658Z,28.59
2023-10-11T19:37:18.856Z,27.69
2023-10-11T19:39:46.516Z,28.04
2023-10-11T19:42:14.197Z,27.76
2023-10-11T19:44:40.681Z,27.77
2023-10-11T19:47:07.491Z,28.80
2023-10-11T19:49:34.079Z,28.37
2023-10-11T19:52:00.461Z,28.23
2023-10-11T19:54:28.152Z,28.74
2023-10-11T19:56:54.553Z,28.12
2023-10-11T19:59:20.904Z,28.37
2023-10-11T20:01:47.323Z,28.08
2023-10-11T20:04:15.142Z,28.54
2023-10-11T20:06:41.707Z,28.83
2023-10-11T20:09:09.121Z,28.72
2023-10-11T20:11:37.089Z,28.58
2023-10-11T20:14:03.432Z,28.77
2023-10-11T20:16:30.444Z,29.20
2023-10-11T20:18:58.760Z,28.98
2023-10-11T20:21:25.410Z,29.08
2023-10-11T20:23:52.694Z,29.48
2023-10-11T20:26:19.557Z,29.14
2023-10-11T20:28:53.148Z,28.85
2023-10-11T20:31:19.547Z,28.90
2023-10-11T20:33:46.100Z,28.18
2023-10-11T20:36:14.001Z,29.05
2023-10-11T20:38:41.920Z,28.54
2023-10-11T20:41:12.630Z,29.35
2023-10-11T20:43:39.976Z,29.46
2023-10-11T20:46:07.303Z,28.96
2023-10-11T20:48:36.277Z,29.40
2023-10-11T20:51:03.388Z,29.60
2023-10-11T20:53:29.783Z,30.31
2023-10-11T20:55:59.746Z,30.00
2023-10-11T20:58:26.109Z,29.73
2023-10-11T21:00:52.601Z,30.08
2023-10-11T21:03:26.003Z,29.99
2023-10-11T21:05:52.761Z,29.80
2023-10-11T21:08:20.707Z,30.45
2023-10-11T21:10:47.757Z,30.25
2023-10-11T21:13:14.377Z,30.47
2023-10-11T21:15:41.633Z,30.49
2023-10-11T21:18:11.262Z,30.29
2023-10-11T21:20:38.755Z,30.25
2023-10-11T21:23:05.517Z,29.62
2023-10-11T21:25:32.002Z,28.88
2023-10-11T21:27:58.700Z,29.04
2023-10-11T21:30:25.181Z,29.70
2023-10-11T21:32:52.519Z,29.12
2023-10-11T21:35:22.551Z,29.28
2023-10-11T21:37:49.588Z,29.73
2023-10-11T21:40:16.053Z,30.41
2023-10-11T21:42:42.484Z,30.15
2023-10-11T21:45:12.923Z,30.46
2023-10-11T21:47:42.225Z,30.84
2023-10-11T21:50:10.618Z,30.95
2023-10-11T21:52:36.953Z,30.42
2023-10-11T21:55:05.420Z,30.66
2023-10-11T21:57:31.875Z,29.95
2023-10-11T21:59:58.242Z,30.15
2023-10-11T22:02:30.558Z,29.02
2023-10-11T22:04:57.272Z,29.59
2023-10-11T22:07:23.711Z,30.15
2023-10-11T22:09:50.088Z,30.49
2023-10-11T22:12:16.785Z,30.45
2023-10-11T22:14:43.206Z,30.92
2023-10-11T22:17:09.630Z,30.14
2023-10-11T22:19:37.674Z,30.26
2023-10-11T22:22:10.316Z,30.94
2023-10-11T22:24:38.443Z,30.68
2023-10-11T22:27:07.915Z,30.86
2023-10-11T22:29:38.593Z,29.86
2023-10-11T22:32:05.409Z,29.42
2023-10-11T22:34:31.844Z,29.84
2023-10-11T22:36:58.281Z,29.37
2023-10-11T22:39:26.053Z,29.63
2023-10-11T22:41:52.716Z,30.19
2023-10-11T22:44:19.277Z,29.62
2023-10-11T22:46:45.782Z,29.26
2023-10-11T22:49:12.144Z,29.71
2023-10-11T22:51:38.502Z,29.31
2023-10-11T22:54:05.206Z,29.30
2023-10-11T22:56:31.763Z,29.54
2023-10-11T22:58:58.425Z,28.37
2023-10-11T23:01:24.809Z,28.92
2023-10-11T23:03:53.556Z,28.96
2023-10-11T23:06:20.075Z,28.68
2023-10-11T23:08:47.137Z,28.01
2023-10-11T23:11:24.215Z,27.79
2023-10-11T23:13:50.703Z,27.26
2023-10-11T23:16:18.092Z,27.25
2023-10-11T23:18:46.610Z,27.09
2023-10-11T23:21:17.064Z,26.94
2023-10-11T23:23:43.606Z,26.89
2023-10-11T23:26:13.270Z,27.11
2023-10-11T23:28:40.221Z,27.39
2023-10-11T23:31:10.856Z,28.18
2023-10-11T23:33:48.887Z,28.79
2023-10-11T23:36:15.439Z,29.04
2023-10-11T23:38:46.500Z,30.12
2023-10-11T23:41:31.287Z,29.67
2023-10-11T23:44:00.481Z,29.67
2023-10-11T23:46:30.697Z,29.83
2023-10-11T23:49:07.206Z,29.92
2023-10-11T23:51:40.663Z,29.58
2023-10-11T23:54:09.900Z,30.69
2023-10-11T23:56:36.401Z,29.21
2023-10-11T23:59:13.497Z,29.20
